sensor_id;sensor_type;location;lat;lon;timestamp;pressure;altitude;pressure_sealevel;temperature;humidity
10668;BME280;5382;42.136;24.796;2023-04-26T00:02:26;98941.09;;;13.58;100.00
10668;BME280;5382;42.136;24.796;2023-04-26T00:04:53;98935.47;;;13.61;100.00
10668;BME280;5382;42.136;24.796;2023-04-26T00:07:23;98934.72;;;13.69;100.00
10668;BME280;5382;42.136;24.796;2023-04-26T00:09:50;98928.84;;;13.65;100.00
10668;BME280;5382;42.136;24.796;2023-04-26T00:12:17;98930.84;;;13.63;100.00
10668;BME280;5382;42.136;24.796;2023-04-26T00:14:47;98925.22;;;13.66;100.00
10668;BME280;5382;42.136;24.796;2023-04-26T00:17:14;98927.72;;;13.68;100.00
10668;BME280;5382;42.136;24.796;2023-04-26T00:19:40;98917.75;;;13.70;100.00
10668;BME280;5382;42.136;24.796;2023-04-26T00:22:08;98922.09;;;13.71;100.00
10668;BME280;5382;42.136;24.796;2023-04-26T00:24:35;98911.75;;;13.68;100.00
10668;BME280;5382;42.136;24.796;2023-04-26T00:27:02;98907.75;;;13.64;100.00
10668;BME280;5382;42.136;24.796;2023-04-26T00:29:33;98907.91;;;13.62;100.00
10668;BME280;5382;42.136;24.796;2023-04-26T00:32:01;98906.38;;;13.60;100.00
10668;BME280;5382;42.136;24.796;2023-04-26T00:34:31;98908.22;;;13.59;100.00
10668;BME280;5382;42.136;24.796;2023-04-26T00:36:58;98893.53;;;13.55;100.00
10668;BME280;5382;42.136;24.796;2023-04-26T00:39:25;98890.00;;;13.46;100.00
10668;BME280;5382;42.136;24.796;2023-04-26T00:41:52;98884.63;;;13.38;100.00
10668;BME280;5382;42.136;24.796;2023-04-26T00:44:19;98880.50;;;13.44;100.00
10668;BME280;5382;42.136;24.796;2023-04-26T00:46:45;98876.56;;;13.48;100.00
10668;BME280;5382;42.136;24.796;2023-04-26T00:49:15;98871.09;;;13.49;100.00
10668;BME280;5382;42.136;24.796;2023-04-26T00:51:43;98873.91;;;13.48;100.00
10668;BME280;5382;42.136;24.796;2023-04-26T00:54:10;98876.41;;;13.49;100.00
10668;BME280;5382;42.136;24.796;2023-04-26T00:56:38;98865.16;;;13.56;100.00
10668;BME280;5382;42.136;24.796;2023-04-26T00:59:05;98862.03;;;13.60;100.00
10668;BME280;5382;42.136;24.796;2023-04-26T01:01:33;98873.03;;;13.65;100.00
10668;BME280;5382;42.136;24.796;2023-04-26T01:04:00;98865.00;;;13.57;100.00
10668;BME280;5382;42.136;24.796;2023-04-26T01:06:32;98866.50;;;13.60;100.00
10668;BME280;5382;42.136;24.796;2023-04-26T01:09:02;98861.50;;;13.57;100.00
10668;BME280;5382;42.136;24.796;2023-04-26T01:11:30;98854.78;;;13.44;100.00
10668;BME280;5382;42.136;24.796;2023-04-26T01:13:57;98874.56;;;13.50;100.00
10668;BME280;5382;42.136;24.796;2023-04-26T01:16:24;98868.59;;;13.48;100.00
10668;BME280;5382;42.136;24.796;2023-04-26T01:18:52;98865.94;;;13.48;100.00
10668;BME280;5382;42.136;24.796;2023-04-26T01:21:19;98865.16;;;13.56;100.00
10668;BME280;5382;42.136;24.796;2023-04-26T01:23:49;98864.63;;;13.52;100.00
10668;BME280;5382;42.136;24.796;2023-04-26T01:26:15;98878.16;;;13.59;100.00
10668;BME280;5382;42.136;24.796;2023-04-26T01:28:42;98870.69;;;13.62;100.00
10668;BME280;5382;42.136;24.796;2023-04-26T01:31:10;98866.56;;;13.68;100.00
10668;BME280;5382;42.136;24.796;2023-04-26T01:33:37;98874.34;;;13.61;100.00
10668;BME280;5382;42.136;24.796;2023-04-26T01:36:07;98863.66;;;13.53;100.00
10668;BME280;5382;42.136;24.796;2023-04-26T01:38:34;98859.00;;;13.55;100.00
10668;BME280;5382;42.136;24.796;2023-04-26T01:41:02;98860.50;;;13.58;100.00
10668;BME280;5382;42.136;24.796;2023-04-26T01:43:29;98858.34;;;13.53;100.00
10668;BME280;5382;42.136;24.796;2023-04-26T01:45:56;98855.69;;;13.53;100.00
10668;BME280;5382;42.136;24.796;2023-04-26T01:48:22;98848.38;;;13.55;100.00
10668;BME280;5382;42.136;24.796;2023-04-26T01:50:49;98844.38;;;13.51;100.00
10668;BME280;5382;42.136;24.796;2023-04-26T01:53:16;98838.38;;;13.49;100.00
10668;BME280;5382;42.136;24.796;2023-04-26T01:55:43;98848.31;;;13.47;100.00
10668;BME280;5382;42.136;24.796;2023-04-26T01:58:11;98843.94;;;13.38;100.00
10668;BME280;5382;42.136;24.796;2023-04-26T02:00:37;98843.25;;;13.36;100.00
10668;BME280;5382;42.136;24.796;2023-04-26T02:03:04;98854.03;;;13.34;100.00
10668;BME280;5382;42.136;24.796;2023-04-26T02:05:31;98847.56;;;13.19;100.00
10668;BME280;5382;42.136;24.796;2023-04-26T02:07:58;98851.50;;;13.15;100.00
10668;BME280;5382;42.136;24.796;2023-04-26T02:10:25;98866.31;;;13.17;100.00
10668;BME280;5382;42.136;24.796;2023-04-26T02:12:53;98858.34;;;13.17;100.00
10668;BME280;5382;42.136;24.796;2023-04-26T02:15:21;98859.31;;;13.16;100.00
10668;BME280;5382;42.136;24.796;2023-04-26T02:17:47;98859.63;;;13.13;100.00
10668;BME280;5382;42.136;24.796;2023-04-26T02:20:14;98863.88;;;13.06;100.00
10668;BME280;5382;42.136;24.796;2023-04-26T02:22:41;98866.25;;;13.09;100.00
10668;BME280;5382;42.136;24.796;2023-04-26T02:25:08;98863.88;;;13.06;100.00
10668;BME280;5382;42.136;24.796;2023-04-26T02:27:36;98866.75;;;13.13;100.00
10668;BME280;5382;42.136;24.796;2023-04-26T02:30:03;98876.25;;;13.15;100.00
10668;BME280;5382;42.136;24.796;2023-04-26T02:32:31;98873.53;;;13.25;100.00
10668;BME280;5382;42.136;24.796;2023-04-26T02:34:58;98870.72;;;13.26;100.00
10668;BME280;5382;42.136;24.796;2023-04-26T02:37:25;98871.97;;;13.32;100.00
10668;BME280;5382;42.136;24.796;2023-04-26T02:39:52;98873.47;;;13.35;100.00
10668;BME280;5382;42.136;24.796;2023-04-26T02:42:18;98859.06;;;13.37;100.00
10668;BME280;5382;42.136;24.796;2023-04-26T02:44:45;98874.00;;;13.38;100.00
10668;BME280;5382;42.136;24.796;2023-04-26T02:47:12;98876.47;;;13.40;100.00
10668;BME280;5382;42.136;24.796;2023-04-26T02:49:40;98875.19;;;13.44;100.00
10668;BME280;5382;42.136;24.796;2023-04-26T02:52:07;98885.38;;;13.48;100.00
10668;BME280;5382;42.136;24.796;2023-04-26T02:54:34;98879.88;;;13.50;100.00
10668;BME280;5382;42.136;24.796;2023-04-26T02:57:00;98883.59;;;13.57;100.00
10668;BME280;5382;42.136;24.796;2023-04-26T02:59:28;98883.31;;;13.42;100.00
10668;BME280;5382;42.136;24.796;2023-04-26T03:01:55;98886.81;;;13.43;100.00
10668;BME280;5382;42.136;24.796;2023-04-26T03:04:22;98889.94;;;13.38;100.00
10668;BME280;5382;42.136;24.796;2023-04-26T03:06:50;98883.41;;;13.33;100.00
10668;BME280;5382;42.136;24.796;2023-04-26T03:09:17;98881.34;;;13.44;100.00
10668;BME280;5382;42.136;24.796;2023-04-26T03:11:43;98875.66;;;13.39;100.00
10668;BME280;5382;42.136;24.796;2023-04-26T03:14:10;98864.38;;;13.37;100.00
10668;BME280;5382;42.136;24.796;2023-04-26T03:16:40;98860.44;;;13.49;100.00
10668;BME280;5382;42.136;24.796;2023-04-26T03:19:07;98864.63;;;13.52;100.00
10668;BME280;5382;42.136;24.796;2023-04-26T03:21:34;98861.66;;;13.55;100.00
10668;BME280;5382;42.136;24.796;2023-04-26T03:24:02;98860.00;;;13.54;100.00
10668;BME280;5382;42.136;24.796;2023-04-26T03:26:29;98859.16;;;13.53;100.00
10668;BME280;5382;42.136;24.796;2023-04-26T03:28:56;98855.56;;;13.63;100.00
10668;BME280;5382;42.136;24.796;2023-04-26T03:31:23;98853.16;;;13.51;100.00
10668;BME280;5382;42.136;24.796;2023-04-26T03:33:50;98856.16;;;13.30;100.00
10668;BME280;5382;42.136;24.796;2023-04-26T03:36:17;98864.81;;;13.33;100.00
10668;BME280;5382;42.136;24.796;2023-04-26T03:38:44;98873.81;;;13.40;100.00
10668;BME280;5382;42.136;24.796;2023-04-26T03:41:12;98876.03;;;13.26;100.00
10668;BME280;5382;42.136;24.796;2023-04-26T03:43:38;98877.41;;;13.30;100.00
10668;BME280;5382;42.136;24.796;2023-04-26T03:46:05;98883.03;;;13.27;100.00
10668;BME280;5382;42.136;24.796;2023-04-26T03:48:32;98886.94;;;13.23;100.00
10668;BME280;5382;42.136;24.796;2023-04-26T03:51:00;98887.94;;;13.22;100.00
10668;BME280;5382;42.136;24.796;2023-04-26T03:53:27;98893.56;;;13.19;100.00
10668;BME280;5382;42.136;24.796;2023-04-26T03:55:54;98902.28;;;13.12;100.00
10668;BME280;5382;42.136;24.796;2023-04-26T03:58:24;98890.25;;;12.90;100.00
10668;BME280;5382;42.136;24.796;2023-04-26T04:00:51;98880.25;;;12.83;100.00
10668;BME280;5382;42.136;24.796;2023-04-26T04:03:18;98894.75;;;12.89;100.00
10668;BME280;5382;42.136;24.796;2023-04-26T04:05:45;98896.19;;;12.83;100.00
10668;BME280;5382;42.136;24.796;2023-04-26T04:08:12;98895.28;;;12.93;100.00
10668;BME280;5382;42.136;24.796;2023-04-26T04:10:40;98898.94;;;12.92;100.00
10668;BME280;5382;42.136;24.796;2023-04-26T04:13:07;98899.50;;;12.85;100.00
10668;BME280;5382;42.136;24.796;2023-04-26T04:15:35;98900.06;;;12.89;100.00
10668;BME280;5382;42.136;24.796;2023-04-26T04:18:02;98897.63;;;12.96;100.00
10668;BME280;5382;42.136;24.796;2023-04-26T04:20:29;98899.91;;;13.08;100.00
10668;BME280;5382;42.136;24.796;2023-04-26T04:22:55;98895.16;;;13.12;100.00
10668;BME280;5382;42.136;24.796;2023-04-26T04:25:23;98899.41;;;13.23;100.00
10668;BME280;5382;42.136;24.796;2023-04-26T04:27:49;98902.00;;;13.33;100.00
10668;BME280;5382;42.136;24.796;2023-04-26T04:30:17;98899.19;;;13.34;100.00
10668;BME280;5382;42.136;24.796;2023-04-26T04:32:45;98905.97;;;13.19;100.00
10668;BME280;5382;42.136;24.796;2023-04-26T04:35:12;98902.31;;;13.29;100.00
10668;BME280;5382;42.136;24.796;2023-04-26T04:37:39;98894.13;;;13.41;100.00
10668;BME280;5382;42.136;24.796;2023-04-26T04:40:09;98894.41;;;13.38;100.00
10668;BME280;5382;42.136;24.796;2023-04-26T04:42:36;98909.22;;;13.40;100.00
10668;BME280;5382;42.136;24.796;2023-04-26T04:45:03;98913.50;;;13.23;100.00
10668;BME280;5382;42.136;24.796;2023-04-26T04:47:30;98909.41;;;13.11;100.00
10668;BME280;5382;42.136;24.796;2023-04-26T04:49:59;98907.22;;;13.06;100.00
10668;BME280;5382;42.136;24.796;2023-04-26T04:52:26;98912.81;;;13.03;100.00
10668;BME280;5382;42.136;24.796;2023-04-26T04:54:53;98909.00;;;13.06;100.00
10668;BME280;5382;42.136;24.796;2023-04-26T04:57:20;98898.13;;;13.09;100.00
10668;BME280;5382;42.136;24.796;2023-04-26T04:59:47;98909.78;;;13.16;100.00
10668;BME280;5382;42.136;24.796;2023-04-26T05:02:13;98904.84;;;13.21;100.00
10668;BME280;5382;42.136;24.796;2023-04-26T05:04:40;98909.53;;;13.37;100.00
10668;BME280;5382;42.136;24.796;2023-04-26T05:07:08;98911.34;;;13.37;100.00
10668;BME280;5382;42.136;24.796;2023-04-26T05:09:35;98908.34;;;13.58;100.00
10668;BME280;5382;42.136;24.796;2023-04-26T05:12:02;98904.28;;;13.63;100.00
10668;BME280;5382;42.136;24.796;2023-04-26T05:14:29;98911.53;;;13.79;100.00
10668;BME280;5382;42.136;24.796;2023-04-26T05:16:56;98910.44;;;13.90;100.00
10668;BME280;5382;42.136;24.796;2023-04-26T05:19:23;98910.66;;;13.96;100.00
10668;BME280;5382;42.136;24.796;2023-04-26T05:21:50;98888.34;;;13.89;100.00
10668;BME280;5382;42.136;24.796;2023-04-26T05:24:18;98907.91;;;14.14;100.00
10668;BME280;5382;42.136;24.796;2023-04-26T05:26:46;98906.22;;;14.05;100.00
10668;BME280;5382;42.136;24.796;2023-04-26T05:29:12;98909.38;;;13.83;100.00
10668;BME280;5382;42.136;24.796;2023-04-26T05:31:39;98909.38;;;13.83;100.00
10668;BME280;5382;42.136;24.796;2023-04-26T05:34:06;98906.25;;;13.87;100.00
10668;BME280;5382;42.136;24.796;2023-04-26T05:36:33;98901.16;;;13.94;100.00
10668;BME280;5382;42.136;24.796;2023-04-26T05:39:00;98905.53;;;14.03;100.00
10668;BME280;5382;42.136;24.796;2023-04-26T05:41:28;98899.88;;;14.06;100.00
10668;BME280;5382;42.136;24.796;2023-04-26T05:43:55;98909.44;;;14.17;100.00
10668;BME280;5382;42.136;24.796;2023-04-26T05:46:22;98907.97;;;14.23;100.00
10668;BME280;5382;42.136;24.796;2023-04-26T05:48:48;98908.16;;;14.29;100.00
10668;BME280;5382;42.136;24.796;2023-04-26T05:51:16;98914.16;;;14.31;100.00
10668;BME280;5382;42.136;24.796;2023-04-26T05:53:43;98914.06;;;14.41;100.00
10668;BME280;5382;42.136;24.796;2023-04-26T05:56:09;98907.63;;;14.52;100.00
10668;BME280;5382;42.136;24.796;2023-04-26T05:58:38;98911.69;;;14.64;100.00
10668;BME280;5382;42.136;24.796;2023-04-26T06:01:05;98909.34;;;14.61;100.00
10668;BME280;5382;42.136;24.796;2023-04-26T06:03:32;98905.59;;;14.80;100.00
10668;BME280;5382;42.136;24.796;2023-04-26T06:05:59;98915.91;;;14.83;100.00
10668;BME280;5382;42.136;24.796;2023-04-26T06:08:26;98914.56;;;14.79;100.00
10668;BME280;5382;42.136;24.796;2023-04-26T06:10:53;98903.75;;;14.80;100.00
10668;BME280;5382;42.136;24.796;2023-04-26T06:13:20;98914.91;;;14.84;100.00
10668;BME280;5382;42.136;24.796;2023-04-26T06:15:48;98919.59;;;14.82;100.00
10668;BME280;5382;42.136;24.796;2023-04-26T06:18:14;98919.38;;;14.67;100.00
10668;BME280;5382;42.136;24.796;2023-04-26T06:20:41;98914.97;;;14.58;100.00
10668;BME280;5382;42.136;24.796;2023-04-26T06:23:08;98911.19;;;14.69;100.00
10668;BME280;5382;42.136;24.796;2023-04-26T06:25:35;98922.84;;;14.68;100.00
10668;BME280;5382;42.136;24.796;2023-04-26T06:28:02;98911.53;;;14.66;100.00
10668;BME280;5382;42.136;24.796;2023-04-26T06:30:29;98913.50;;;14.64;100.00
10668;BME280;5382;42.136;24.796;2023-04-26T06:32:57;98926.38;;;14.76;100.00
10668;BME280;5382;42.136;24.796;2023-04-26T06:35:25;98917.22;;;14.79;100.00
10668;BME280;5382;42.136;24.796;2023-04-26T06:37:52;98912.31;;;15.00;100.00
10668;BME280;5382;42.136;24.796;2023-04-26T06:40:18;98915.13;;;15.07;100.00
10668;BME280;5382;42.136;24.796;2023-04-26T06:42:45;98905.69;;;15.13;100.00
10668;BME280;5382;42.136;24.796;2023-04-26T06:45:12;98910.34;;;15.11;100.00
10668;BME280;5382;42.136;24.796;2023-04-26T06:47:39;98911.00;;;15.13;100.00
10668;BME280;5382;42.136;24.796;2023-04-26T06:50:09;98913.63;;;15.04;100.00
10668;BME280;5382;42.136;24.796;2023-04-26T06:52:35;98910.63;;;14.99;100.00
10668;BME280;5382;42.136;24.796;2023-04-26T06:55:03;98907.00;;;15.09;100.00
10668;BME280;5382;42.136;24.796;2023-04-26T06:57:30;98906.00;;;15.18;100.00
10668;BME280;5382;42.136;24.796;2023-04-26T06:59:57;98908.34;;;15.29;100.00
10668;BME280;5382;42.136;24.796;2023-04-26T07:02:24;98901.03;;;15.31;100.00
10668;BME280;5382;42.136;24.796;2023-04-26T07:04:50;98905.34;;;15.24;100.00
10668;BME280;5382;42.136;24.796;2023-04-26T07:07:19;98911.69;;;15.39;100.00
10668;BME280;5382;42.136;24.796;2023-04-26T07:09:45;98905.69;;;15.45;100.00
10668;BME280;5382;42.136;24.796;2023-04-26T07:12:12;98913.53;;;15.55;100.00
10668;BME280;5382;42.136;24.796;2023-04-26T07:14:39;98908.69;;;15.59;100.00
10668;BME280;5382;42.136;24.796;2023-04-26T07:17:07;98925.22;;;15.62;100.00
10668;BME280;5382;42.136;24.796;2023-04-26T07:19:34;98927.75;;;15.72;100.00
10668;BME280;5382;42.136;24.796;2023-04-26T07:22:01;98920.56;;;15.64;100.00
10668;BME280;5382;42.136;24.796;2023-04-26T07:24:30;98918.06;;;15.71;100.00
10668;BME280;5382;42.136;24.796;2023-04-26T07:26:57;98919.38;;;15.91;100.00
10668;BME280;5382;42.136;24.796;2023-04-26T07:29:24;98924.34;;;16.03;100.00
10668;BME280;5382;42.136;24.796;2023-04-26T07:31:50;98936.03;;;16.10;100.00
10668;BME280;5382;42.136;24.796;2023-04-26T07:34:17;98922.03;;;16.16;100.00
10668;BME280;5382;42.136;24.796;2023-04-26T07:36:44;98931.72;;;16.09;100.00
10668;BME280;5382;42.136;24.796;2023-04-26T07:39:11;98926.34;;;16.17;100.00
10668;BME280;5382;42.136;24.796;2023-04-26T07:41:39;98932.56;;;15.93;100.00
10668;BME280;5382;42.136;24.796;2023-04-26T07:44:06;98930.53;;;16.11;100.00
10668;BME280;5382;42.136;24.796;2023-04-26T07:46:33;98937.50;;;16.21;100.00
10668;BME280;5382;42.136;24.796;2023-04-26T07:49:00;98933.88;;;16.13;100.00
10668;BME280;5382;42.136;24.796;2023-04-26T07:51:26;98934.34;;;16.17;100.00
10668;BME280;5382;42.136;24.796;2023-04-26T07:53:53;98937.50;;;16.21;100.00
10668;BME280;5382;42.136;24.796;2023-04-26T07:56:20;98936.53;;;16.22;100.00
10668;BME280;5382;42.136;24.796;2023-04-26T07:58:49;98929.66;;;16.27;100.00
10668;BME280;5382;42.136;24.796;2023-04-26T08:01:16;98931.69;;;16.17;100.00
10668;BME280;5382;42.136;24.796;2023-04-26T08:03:43;98928.69;;;16.20;100.00
10668;BME280;5382;42.136;24.796;2023-04-26T08:06:10;98925.34;;;16.18;100.00
10668;BME280;5382;42.136;24.796;2023-04-26T08:08:37;98928.66;;;16.28;100.00
10668;BME280;5382;42.136;24.796;2023-04-26T08:11:09;98942.81;;;16.37;100.00
10668;BME280;5382;42.136;24.796;2023-04-26T08:13:36;98930.13;;;16.47;100.00
10668;BME280;5382;42.136;24.796;2023-04-26T08:16:04;98924.97;;;16.77;100.00
10668;BME280;5382;42.136;24.796;2023-04-26T08:18:31;98926.69;;;17.09;100.00
10668;BME280;5382;42.136;24.796;2023-04-26T08:20:58;98931.53;;;17.06;100.00
10668;BME280;5382;42.136;24.796;2023-04-26T08:23:25;98929.13;;;17.19;100.00
10668;BME280;5382;42.136;24.796;2023-04-26T08:25:52;98928.81;;;17.14;100.00
10668;BME280;5382;42.136;24.796;2023-04-26T08:28:19;98918.00;;;17.07;100.00
10668;BME280;5382;42.136;24.796;2023-04-26T08:30:46;98928.50;;;17.09;100.00
10668;BME280;5382;42.136;24.796;2023-04-26T08:33:16;98910.72;;;16.93;100.00
10668;BME280;5382;42.136;24.796;2023-04-26T08:35:43;98917.31;;;16.82;100.00
10668;BME280;5382;42.136;24.796;2023-04-26T08:38:10;98915.13;;;16.86;100.00
10668;BME280;5382;42.136;24.796;2023-04-26T08:40:37;98917.34;;;17.05;100.00
10668;BME280;5382;42.136;24.796;2023-04-26T08:43:04;98903.88;;;17.21;100.00
10668;BME280;5382;42.136;24.796;2023-04-26T08:45:33;98911.13;;;17.36;100.00
10668;BME280;5382;42.136;24.796;2023-04-26T08:48:02;98909.44;;;17.43;100.00
10668;BME280;5382;42.136;24.796;2023-04-26T08:50:35;98902.91;;;17.60;100.00
10668;BME280;5382;42.136;24.796;2023-04-26T08:53:04;98900.06;;;17.62;100.00
10668;BME280;5382;42.136;24.796;2023-04-26T08:55:34;98895.75;;;17.84;100.00
10668;BME280;5382;42.136;24.796;2023-04-26T08:58:02;98899.81;;;18.09;100.00
10668;BME280;5382;42.136;24.796;2023-04-26T09:00:30;98899.19;;;18.22;100.00
10668;BME280;5382;42.136;24.796;2023-04-26T09:02:57;98896.50;;;18.37;100.00
10668;BME280;5382;42.136;24.796;2023-04-26T09:05:23;98890.69;;;18.48;100.00
10668;BME280;5382;42.136;24.796;2023-04-26T09:07:55;98892.63;;;18.55;100.00
10668;BME280;5382;42.136;24.796;2023-04-26T09:10:23;98890.50;;;18.65;100.00
10668;BME280;5382;42.136;24.796;2023-04-26T09:12:51;98899.34;;;18.65;100.00
10668;BME280;5382;42.136;24.796;2023-04-26T09:15:19;98887.69;;;18.73;100.00
10668;BME280;5382;42.136;24.796;2023-04-26T09:17:47;98884.84;;;18.74;100.00
10668;BME280;5382;42.136;24.796;2023-04-26T09:20:19;98877.38;;;19.06;100.00
10668;BME280;5382;42.136;24.796;2023-04-26T09:22:47;98890.75;;;19.21;100.00
10668;BME280;5382;42.136;24.796;2023-04-26T09:25:17;98870.69;;;19.17;100.00
10668;BME280;5382;42.136;24.796;2023-04-26T09:27:44;98867.81;;;19.40;100.00
10668;BME280;5382;42.136;24.796;2023-04-26T09:30:13;98859.50;;;19.35;95.12
10668;BME280;5382;42.136;24.796;2023-04-26T09:32:50;98856.13;;;19.48;92.26
10668;BME280;5382;42.136;24.796;2023-04-26T09:35:23;98856.56;;;19.73;89.62
10668;BME280;5382;42.136;24.796;2023-04-26T09:37:52;98849.78;;;19.55;93.07
10668;BME280;5382;42.136;24.796;2023-04-26T09:40:22;98847.38;;;19.39;97.58
10668;BME280;5382;42.136;24.796;2023-04-26T09:42:57;98848.31;;;19.53;99.08
10668;BME280;5382;42.136;24.796;2023-04-26T09:45:24;98851.06;;;19.59;95.34
10668;BME280;5382;42.136;24.796;2023-04-26T09:47:51;98849.84;;;19.62;92.55
10668;BME280;5382;42.136;24.796;2023-04-26T09:50:28;98854.81;;;19.65;95.01
10668;BME280;5382;42.136;24.796;2023-04-26T09:52:55;98839.69;;;19.57;98.10
10668;BME280;5382;42.136;24.796;2023-04-26T09:55:27;98847.69;;;19.72;96.54
10668;BME280;5382;42.136;24.796;2023-04-26T09:57:55;98844.13;;;19.93;94.54
10668;BME280;5382;42.136;24.796;2023-04-26T10:00:25;98837.84;;;20.14;97.62
10668;BME280;5382;42.136;24.796;2023-04-26T10:02:53;98839.78;;;20.34;97.38
10668;BME280;5382;42.136;24.796;2023-04-26T10:05:20;98838.16;;;20.39;94.83
10668;BME280;5382;42.136;24.796;2023-04-26T10:07:48;98834.41;;;20.34;89.98
10668;BME280;5382;42.136;24.796;2023-04-26T10:10:17;98826.19;;;20.42;88.67
10668;BME280;5382;42.136;24.796;2023-04-26T10:12:45;98829.50;;;20.37;92.54
10668;BME280;5382;42.136;24.796;2023-04-26T10:15:12;98826.41;;;20.40;97.67
10668;BME280;5382;42.136;24.796;2023-04-26T10:17:39;98825.34;;;20.41;95.28
10668;BME280;5382;42.136;24.796;2023-04-26T10:20:09;98826.78;;;20.37;95.09
10668;BME280;5382;42.136;24.796;2023-04-26T10:22:42;98806.59;;;20.48;98.78
10668;BME280;5382;42.136;24.796;2023-04-26T10:25:10;98829.81;;;20.62;98.37
10668;BME280;5382;42.136;24.796;2023-04-26T10:27:49;98818.03;;;20.63;97.49
10668;BME280;5382;42.136;24.796;2023-04-26T10:30:18;98827.44;;;20.46;99.55
10668;BME280;5382;42.136;24.796;2023-04-26T10:33:15;98811.31;;;20.46;96.91
10668;BME280;5382;42.136;24.796;2023-04-26T10:36:03;98808.94;;;20.23;98.63
10668;BME280;5382;42.136;24.796;2023-04-26T10:38:31;98817.34;;;20.13;100.00
10668;BME280;5382;42.136;24.796;2023-04-26T10:41:30;98824.94;;;19.68;100.00
10668;BME280;5382;42.136;24.796;2023-04-26T10:44:00;98818.66;;;19.61;100.00
10668;BME280;5382;42.136;24.796;2023-04-26T10:46:49;98806.53;;;19.44;100.00
10668;BME280;5382;42.136;24.796;2023-04-26T10:49:18;98818.69;;;19.39;100.00
10668;BME280;5382;42.136;24.796;2023-04-26T10:52:09;98819.81;;;19.24;100.00
10668;BME280;5382;42.136;24.796;2023-04-26T10:54:46;98828.75;;;19.09;100.00
10668;BME280;5382;42.136;24.796;2023-04-26T10:57:14;98814.09;;;18.54;100.00
10668;BME280;5382;42.136;24.796;2023-04-26T11:02:46;98818.41;;;18.04;100.00
10668;BME280;5382;42.136;24.796;2023-04-26T11:05:35;98828.19;;;17.82;100.00
10668;BME280;5382;42.136;24.796;2023-04-26T11:08:06;98826.66;;;17.64;100.00
10668;BME280;5382;42.136;24.796;2023-04-26T11:10:36;98830.59;;;17.54;100.00
10668;BME280;5382;42.136;24.796;2023-04-26T11:13:03;98820.50;;;17.41;100.00
10668;BME280;5382;42.136;24.796;2023-04-26T11:15:30;98817.88;;;17.56;100.00
10668;BME280;5382;42.136;24.796;2023-04-26T11:18:00;98827.84;;;17.62;100.00
10668;BME280;5382;42.136;24.796;2023-04-26T11:20:29;98832.56;;;17.75;100.00
10668;BME280;5382;42.136;24.796;2023-04-26T11:22:57;98838.81;;;17.90;100.00
10668;BME280;5382;42.136;24.796;2023-04-26T11:25:25;98834.66;;;17.87;100.00
10668;BME280;5382;42.136;24.796;2023-04-26T11:28:00;98838.84;;;17.67;100.00
10668;BME280;5382;42.136;24.796;2023-04-26T11:30:28;98833.34;;;17.46;100.00
10668;BME280;5382;42.136;24.796;2023-04-26T11:32:56;98839.91;;;17.43;100.00
10668;BME280;5382;42.136;24.796;2023-04-26T11:35:25;98843.06;;;17.61;100.00
10668;BME280;5382;42.136;24.796;2023-04-26T11:37:57;98836.59;;;17.56;100.00
10668;BME280;5382;42.136;24.796;2023-04-26T11:40:27;98839.69;;;17.44;100.00
10668;BME280;5382;42.136;24.796;2023-04-26T11:42:54;98841.25;;;17.39;100.00
10668;BME280;5382;42.136;24.796;2023-04-26T11:45:24;98847.72;;;17.21;100.00
10668;BME280;5382;42.136;24.796;2023-04-26T11:47:51;98851.66;;;17.11;100.00
10668;BME280;5382;42.136;24.796;2023-04-26T11:50:19;98848.88;;;17.04;100.00
10668;BME280;5382;42.136;24.796;2023-04-26T11:52:53;98858.91;;;17.02;100.00
10668;BME280;5382;42.136;24.796;2023-04-26T11:55:23;98844.28;;;16.90;100.00
10668;BME280;5382;42.136;24.796;2023-04-26T11:57:50;98840.28;;;17.17;100.00
10668;BME280;5382;42.136;24.796;2023-04-26T12:00:18;98850.13;;;17.16;100.00
10668;BME280;5382;42.136;24.796;2023-04-26T12:02:46;98863.91;;;17.05;100.00
10668;BME280;5382;42.136;24.796;2023-04-26T12:05:23;98874.72;;;17.12;100.00
10668;BME280;5382;42.136;24.796;2023-04-26T12:07:53;98875.63;;;17.27;100.00
10668;BME280;5382;42.136;24.796;2023-04-26T12:10:23;98859.38;;;17.29;100.00
10668;BME280;5382;42.136;24.796;2023-04-26T12:12:51;98857.81;;;17.34;100.00
10668;BME280;5382;42.136;24.796;2023-04-26T12:15:22;98855.00;;;17.36;100.00
10668;BME280;5382;42.136;24.796;2023-04-26T12:17:54;98869.72;;;17.32;100.00
10668;BME280;5382;42.136;24.796;2023-04-26T12:20:28;98858.91;;;17.48;100.00
10668;BME280;5382;42.136;24.796;2023-04-26T12:22:58;98854.13;;;17.58;100.00
10668;BME280;5382;42.136;24.796;2023-04-26T12:25:25;98856.63;;;17.60;100.00
10668;BME280;5382;42.136;24.796;2023-04-26T12:27:52;98861.13;;;17.59;100.00
10668;BME280;5382;42.136;24.796;2023-04-26T12:30:19;98857.94;;;17.64;100.00
10668;BME280;5382;42.136;24.796;2023-04-26T12:32:46;98848.59;;;17.60;100.00
10668;BME280;5382;42.136;24.796;2023-04-26T12:35:14;98850.94;;;17.78;100.00
10668;BME280;5382;42.136;24.796;2023-04-26T12:37:41;98849.00;;;17.72;100.00
10668;BME280;5382;42.136;24.796;2023-04-26T12:40:10;98844.06;;;17.60;100.00
10668;BME280;5382;42.136;24.796;2023-04-26T12:42:38;98856.22;;;17.48;100.00
10668;BME280;5382;42.136;24.796;2023-04-26T12:45:05;98849.88;;;17.26;100.00
10668;BME280;5382;42.136;24.796;2023-04-26T12:47:33;98842.50;;;17.05;100.00
10668;BME280;5382;42.136;24.796;2023-04-26T12:49:59;98850.25;;;17.00;100.00
10668;BME280;5382;42.136;24.796;2023-04-26T12:52:27;98847.34;;;17.10;100.00
10668;BME280;5382;42.136;24.796;2023-04-26T12:54:53;98842.38;;;17.21;100.00
10668;BME280;5382;42.136;24.796;2023-04-26T12:57:22;98850.97;;;17.17;100.00
10668;BME280;5382;42.136;24.796;2023-04-26T12:59:49;98850.31;;;17.15;100.00